createdAt,value
2023-05-04T00:02:18.819Z,5.97
2023-05-04T00:06:35.134Z,5.93
2023-05-04T00:10:51.566Z,5.55
2023-05-04T00:15:08.402Z,5.45
2023-05-04T00:19:24.770Z,5.80
2023-05-04T00:23:40.950Z,5.85
2023-05-04T00:27:57.357Z,6.47
2023-05-04T00:32:13.614Z,6.32
2023-05-04T00:36:29.874Z,6.32
2023-05-04T00:40:46.456Z,6.10
2023-05-04T00:45:02.792Z,5.20
2023-05-04T00:49:19.038Z,6.03
2023-05-04T00:53:36.426Z,5.85
2023-05-04T00:57:52.929Z,5.97
2023-05-04T01:02:09.525Z,6.03
2023-05-04T01:06:34.680Z,6.10
2023-05-04T01:10:56.852Z,6.10
2023-05-04T01:15:14.084Z,6.45
2023-05-04T01:19:30.434Z,6.12
2023-05-04T01:23:46.868Z,6.05
2023-05-04T01:28:13.917Z,6.75
2023-05-04T01:32:31.678Z,6.35
2023-05-04T01:36:48.394Z,6.68
2023-05-04T01:41:04.770Z,5.85
2023-05-04T01:45:21.772Z,6.12
2023-05-04T01:49:38.087Z,6.15
2023-05-04T01:53:54.420Z,5.47
2023-05-04T01:58:10.769Z,5.30
2023-05-04T02:02:27.133Z,6.45
2023-05-04T02:06:43.366Z,5.93
2023-05-04T02:10:59.637Z,6.10
2023-05-04T02:15:16.016Z,6.28
2023-05-04T02:19:32.228Z,6.65
2023-05-04T02:23:48.528Z,6.15
2023-05-04T02:28:04.813Z,7.00
2023-05-04T02:32:21.181Z,6.97
2023-05-04T02:36:37.438Z,7.30
2023-05-04T02:40:53.761Z,7.07
2023-05-04T02:45:10.444Z,7.03
2023-05-04T02:49:26.942Z,6.90
2023-05-04T02:53:43.243Z,6.85
2023-05-04T02:57:59.541Z,6.70
2023-05-04T03:02:15.791Z,6.93
2023-05-04T03:06:32.062Z,6.12
2023-05-04T03:10:48.308Z,6.22
2023-05-04T03:15:04.714Z,7.70
2023-05-04T03:19:22.313Z,5.95
2023-05-04T03:23:38.611Z,6.22
2023-05-04T03:27:54.889Z,6.82
2023-05-04T03:32:11.923Z,5.87
2023-05-04T03:36:28.384Z,6.62
2023-05-04T03:40:45.190Z,6.85
2023-05-04T03:45:03.841Z,7.15
2023-05-04T03:49:20.729Z,6.50
2023-05-04T03:53:37.102Z,6.62
2023-05-04T03:57:53.298Z,6.80
2023-05-04T04:02:09.637Z,7.45
2023-05-04T04:06:26.116Z,6.68
2023-05-04T04:10:42.568Z,6.10
2023-05-04T04:14:58.769Z,6.47
2023-05-04T04:19:15.082Z,6.25
2023-05-04T04:23:31.333Z,7.37
2023-05-04T04:27:47.590Z,7.05
2023-05-04T04:32:04.502Z,6.22
2023-05-04T04:36:21.029Z,6.40
2023-05-04T04:40:37.228Z,5.80
2023-05-04T04:44:53.733Z,4.57
2023-05-04T04:49:10.318Z,4.40
2023-05-04T04:53:26.774Z,3.80
2023-05-04T04:57:42.990Z,3.25
2023-05-04T05:01:59.531Z,3.58
2023-05-04T05:06:16.099Z,3.92
2023-05-04T05:10:32.493Z,3.40
2023-05-04T05:14:51.048Z,3.00
2023-05-04T05:19:07.953Z,3.10
2023-05-04T05:23:24.322Z,3.25
2023-05-04T05:27:40.570Z,3.15
2023-05-04T05:31:56.920Z,2.75
2023-05-04T05:36:14.721Z,2.90
2023-05-04T05:40:31.498Z,3.00
2023-05-04T05:44:47.964Z,3.35
2023-05-04T05:49:07.482Z,3.17
2023-05-04T05:53:24.024Z,3.60
2023-05-04T05:57:40.405Z,3.53
2023-05-04T06:01:56.639Z,3.08
2023-05-04T06:06:13.034Z,3.10
2023-05-04T06:10:29.503Z,2.90
2023-05-04T06:14:46.140Z,2.20
2023-05-04T06:19:02.307Z,2.55
2023-05-04T06:23:18.464Z,2.15
2023-05-04T06:27:34.838Z,2.12
2023-05-04T06:31:51.625Z,2.37
2023-05-04T06:36:08.228Z,2.17
2023-05-04T06:40:25.043Z,2.28
2023-05-04T06:44:41.677Z,2.10
2023-05-04T06:48:58.663Z,2.58
2023-05-04T06:53:15.358Z,2.20
2023-05-04T06:57:31.880Z,2.00
2023-05-04T07:01:48.500Z,2.47
2023-05-04T07:06:04.948Z,2.10
2023-05-04T07:10:21.142Z,2.80
2023-05-04T07:14:37.456Z,2.20
2023-05-04T07:18:53.750Z,2.47
2023-05-04T07:23:09.978Z,2.10
2023-05-04T07:27:26.226Z,2.00
2023-05-04T07:31:42.449Z,2.30
2023-05-04T07:35:59.661Z,2.12
2023-05-04T07:40:16.625Z,2.05
2023-05-04T07:44:33.318Z,2.00
2023-05-04T07:48:49.689Z,2.08
2023-05-04T07:53:05.899Z,1.73
2023-05-04T07:57:22.508Z,1.87
2023-05-04T08:01:38.795Z,1.80
2023-05-04T08:05:55.017Z,2.12
2023-05-04T08:10:11.472Z,2.00
2023-05-04T08:14:27.655Z,2.12
2023-05-04T08:18:43.991Z,2.35
2023-05-04T08:23:02.989Z,2.15
2023-05-04T08:27:19.339Z,2.20
2023-05-04T08:31:37.810Z,2.10
2023-05-04T08:35:54.086Z,1.87
2023-05-04T08:40:12.742Z,1.87
2023-05-04T08:44:29.481Z,2.00
2023-05-04T08:48:46.614Z,2.20
2023-05-04T08:53:05.959Z,2.25
2023-05-04T08:57:23.873Z,2.45
2023-05-04T09:01:40.522Z,2.10
2023-05-04T09:05:57.653Z,2.10
2023-05-04T09:10:13.910Z,2.08
2023-05-04T09:14:34.849Z,2.25
2023-05-04T09:18:51.529Z,2.55
2023-05-04T09:23:09.398Z,2.10
2023-05-04T09:27:26.052Z,2.33
2023-05-04T09:31:47.431Z,2.30
2023-05-04T09:36:18.380Z,1.83
2023-05-04T09:40:42.558Z,2.17
2023-05-04T09:45:08.390Z,2.10
2023-05-04T09:49:50.816Z,1.98
2023-05-04T09:54:07.429Z,2.17
2023-05-04T09:58:25.208Z,2.15
2023-05-04T10:02:42.621Z,2.05
2023-05-04T10:06:59.464Z,1.90
2023-05-04T10:11:18.865Z,2.10
2023-05-04T10:15:36.583Z,2.08
2023-05-04T10:20:07.929Z,1.83
2023-05-04T10:24:33.572Z,2.47
2023-05-04T10:29:19.710Z,2.55
2023-05-04T10:33:44.172Z,2.00
2023-05-04T10:42:17.079Z,2.20
2023-05-04T10:46:33.350Z,2.15
2023-05-04T10:50:50.761Z,2.37
2023-05-04T10:55:09.273Z,2.17
2023-05-04T10:59:25.577Z,2.50
2023-05-04T11:03:42.495Z,2.47
2023-05-04T11:12:16.729Z,2.05
2023-05-04T11:16:32.968Z,2.70
2023-05-04T11:20:49.347Z,2.25
2023-05-04T11:25:06.862Z,2.45
2023-05-04T11:29:23.176Z,2.65
2023-05-04T11:33:39.404Z,3.50
2023-05-04T11:37:56.594Z,3.12
2023-05-04T11:42:12.815Z,3.22
2023-05-04T11:46:29.331Z,2.70
2023-05-04T11:50:46.061Z,2.90
2023-05-04T11:55:03.584Z,2.60
2023-05-04T11:59:19.914Z,2.70
2023-05-04T12:03:53.320Z,2.62
2023-05-04T12:08:12.634Z,3.00
2023-05-04T12:12:36.531Z,3.15
2023-05-04T12:16:57.997Z,2.60
2023-05-04T12:21:19.934Z,2.42
2023-05-04T12:25:44.144Z,2.55
2023-05-04T12:30:08.311Z,2.60
2023-05-04T12:34:24.559Z,2.72
2023-05-04T12:38:40.842Z,2.90
2023-05-04T12:42:57.029Z,3.10
2023-05-04T12:47:14.375Z,3.03
2023-05-04T12:51:30.703Z,2.87
2023-05-04T12:55:46.941Z,2.97
2023-05-04T13:00:03.912Z,2.92
2023-05-04T13:04:20.321Z,2.90
2023-05-04T13:08:36.605Z,2.75
2023-05-04T13:12:52.968Z,2.87
2023-05-04T13:17:09.321Z,2.90
2023-05-04T13:21:25.661Z,2.78
2023-05-04T13:25:42.291Z,2.60
2023-05-04T13:30:01.262Z,2.67
2023-05-04T13:34:17.601Z,2.85
2023-05-04T13:38:33.829Z,2.70
2023-05-04T13:42:50.050Z,2.65
2023-05-04T13:47:06.360Z,2.83
2023-05-04T13:51:22.615Z,2.80
2023-05-04T13:55:38.842Z,3.95
2023-05-04T14:00:07.206Z,3.90
2023-05-04T14:04:24.547Z,3.83
2023-05-04T14:08:40.783Z,3.20
2023-05-04T14:12:57.154Z,4.05
2023-05-04T14:17:13.622Z,3.72
2023-05-04T14:21:29.893Z,3.80
2023-05-04T14:25:53.702Z,4.05
2023-05-04T14:30:10.653Z,4.03
2023-05-04T14:34:29.553Z,3.30
2023-05-04T14:38:46.023Z,3.33
2023-05-04T14:43:02.504Z,3.25
2023-05-04T14:47:19.750Z,3.20
2023-05-04T14:51:37.027Z,3.50
2023-05-04T14:55:53.334Z,3.45
2023-05-04T15:00:11.638Z,2.92
2023-05-04T15:04:28.043Z,3.33
2023-05-04T15:08:44.326Z,3.62
2023-05-04T15:13:01.890Z,3.62
2023-05-04T15:17:20.100Z,3.67
2023-05-04T15:21:36.658Z,3.33
2023-05-04T15:25:53.015Z,3.50
2023-05-04T15:30:10.246Z,3.28
2023-05-04T15:34:26.637Z,3.80
2023-05-04T15:38:43.787Z,3.37
2023-05-04T15:43:00.147Z,3.00
2023-05-04T15:47:16.359Z,3.20
2023-05-04T15:51:32.728Z,3.03
2023-05-04T15:55:50.876Z,3.15
2023-05-04T16:00:09.159Z,3.50
2023-05-04T16:04:25.398Z,2.90
2023-05-04T16:08:41.723Z,2.85
2023-05-04T16:13:04.251Z,3.22
2023-05-04T16:17:21.021Z,3.28
2023-05-04T16:21:37.259Z,3.22
2023-05-04T16:25:53.471Z,3.10
2023-05-04T16:30:10.218Z,3.30
2023-05-04T16:34:26.755Z,3.47
2023-05-04T16:38:43.190Z,3.62
2023-05-04T16:42:59.732Z,3.17
2023-05-04T16:47:16.431Z,3.62
2023-05-04T16:51:32.609Z,3.67
2023-05-04T16:55:51.110Z,3.55
2023-05-04T17:00:08.188Z,3.70
2023-05-04T17:04:25.480Z,3.40
2023-05-04T17:08:41.741Z,3.45
2023-05-04T17:12:59.220Z,3.37
2023-05-04T17:17:16.608Z,3.28
2023-05-04T17:21:33.161Z,3.78
2023-05-04T17:25:50.396Z,3.83
2023-05-04T17:30:07.564Z,3.30
2023-05-04T17:34:23.925Z,3.60
2023-05-04T17:38:41.500Z,3.55
2023-05-04T17:42:57.885Z,4.05
2023-05-04T17:47:14.162Z,4.57
2023-05-04T17:51:31.048Z,4.00
2023-05-04T17:55:47.255Z,4.28
2023-05-04T18:00:05.406Z,3.92
2023-05-04T18:04:21.829Z,3.97
2023-05-04T18:08:37.988Z,3.95
2023-05-04T18:12:56.472Z,4.47
2023-05-04T18:17:12.851Z,4.47
2023-05-04T18:21:29.097Z,3.83
2023-05-04T18:25:45.360Z,4.60
2023-05-04T18:30:02.452Z,4.37
2023-05-04T18:34:18.804Z,4.80
2023-05-04T18:38:36.378Z,4.95
2023-05-04T18:42:52.543Z,4.97
2023-05-04T18:47:09.234Z,4.80
2023-05-04T18:51:28.044Z,4.78
2023-05-04T18:55:44.305Z,5.05
2023-05-04T19:00:00.669Z,4.75
2023-05-04T19:04:16.877Z,5.10
2023-05-04T19:08:33.409Z,4.78
2023-05-04T19:12:50.692Z,4.72
2023-05-04T19:17:07.052Z,5.12
2023-05-04T19:21:23.332Z,5.00
2023-05-04T19:25:39.588Z,4.68
2023-05-04T19:29:56.292Z,4.75
2023-05-04T19:34:12.655Z,5.03
2023-05-04T19:38:28.954Z,5.07
2023-05-04T19:42:46.327Z,5.05
2023-05-04T19:47:02.648Z,5.12
2023-05-04T19:51:18.898Z,4.60
2023-05-04T19:55:36.411Z,4.90
2023-05-04T19:59:52.667Z,4.90
2023-05-04T20:04:08.921Z,5.28
2023-05-04T20:08:25.160Z,4.78
2023-05-04T20:12:41.525Z,4.50
2023-05-04T20:16:58.253Z,5.45
2023-05-04T20:21:14.802Z,4.87
2023-05-04T20:25:31.231Z,5.70
2023-05-04T20:29:47.598Z,5.10
2023-05-04T20:34:03.799Z,5.20
2023-05-04T20:38:20.086Z,5.05
2023-05-04T20:42:36.421Z,5.18
2023-05-04T20:46:52.606Z,5.35
2023-05-04T20:51:14.788Z,5.50
2023-05-04T20:55:31.848Z,6.25
2023-05-04T20:59:48.072Z,5.28
2023-05-04T21:04:04.462Z,5.20
2023-05-04T21:08:20.728Z,5.60
2023-05-04T21:12:37.047Z,4.75
2023-05-04T21:16:53.315Z,5.45
2023-05-04T21:21:09.630Z,5.07
2023-05-04T21:25:26.377Z,5.65
2023-05-04T21:29:42.541Z,5.65
2023-05-04T21:33:58.849Z,5.53
2023-05-04T21:38:15.203Z,5.70
2023-05-04T21:42:31.496Z,6.10
2023-05-04T21:46:47.823Z,6.10
2023-05-04T21:51:04.062Z,5.90
2023-05-04T21:55:20.541Z,5.50
2023-05-04T21:59:36.910Z,5.90
2023-05-04T22:03:53.332Z,5.55
2023-05-04T22:08:09.490Z,5.50
2023-05-04T22:12:26.244Z,5.32
2023-05-04T22:16:42.576Z,5.75
2023-05-04T22:20:58.832Z,5.62
2023-05-04T22:25:15.166Z,5.53
2023-05-04T22:29:34.062Z,5.15
2023-05-04T22:33:50.308Z,5.10
2023-05-04T22:38:07.004Z,4.82
2023-05-04T22:42:23.380Z,4.65
2023-05-04T22:46:39.877Z,4.93
2023-05-04T22:50:56.468Z,5.18
2023-05-04T22:55:12.684Z,5.28
2023-05-04T22:59:28.913Z,4.00
2023-05-04T23:03:45.557Z,4.28
2023-05-04T23:08:01.845Z,4.18
2023-05-04T23:12:18.255Z,3.70
2023-05-04T23:16:34.551Z,3.33
2023-05-04T23:20:51.020Z,3.55
2023-05-04T23:25:08.422Z,3.22
2023-05-04T23:29:24.764Z,3.28
2023-05-04T23:33:41.872Z,3.37
2023-05-04T23:37:58.374Z,3.97
2023-05-04T23:42:14.958Z,3.50
2023-05-04T23:46:31.346Z,3.28
2023-05-04T23:50:54.949Z,3.80
2023-05-04T23:55:11.323Z,3.60
2023-05-04T23:59:27.809Z,3.70
